sensor_id;sensor_type;location;lat;lon;timestamp;temperature;humidity
14585;DHT22;7379;51.506;11.876;2024-03-06T00:00:01;7.50;81.70
14585;DHT22;7379;51.506;11.876;2024-03-06T00:02:26;7.50;81.70
14585;DHT22;7379;51.506;11.876;2024-03-06T00:04:53;7.50;81.60
14585;DHT22;7379;51.506;11.876;2024-03-06T00:07:20;7.50;81.70
14585;DHT22;7379;51.506;11.876;2024-03-06T00:09:48;7.50;81.60
14585;DHT22;7379;51.506;11.876;2024-03-06T00:12:15;7.50;81.60
14585;DHT22;7379;51.506;11.876;2024-03-06T00:14:42;7.50;81.60
14585;DHT22;7379;51.506;11.876;2024-03-06T00:17:08;7.50;81.50
14585;DHT22;7379;51.506;11.876;2024-03-06T00:19:35;7.50;81.50
14585;DHT22;7379;51.506;11.876;2024-03-06T00:22:02;7.40;81.40
14585;DHT22;7379;51.506;11.876;2024-03-06T00:24:29;7.40;81.40
14585;DHT22;7379;51.506;11.876;2024-03-06T00:26:59;7.40;81.40
14585;DHT22;7379;51.506;11.876;2024-03-06T00:29:27;7.40;81.40
14585;DHT22;7379;51.506;11.876;2024-03-06T00:31:53;7.40;81.40
14585;DHT22;7379;51.506;11.876;2024-03-06T00:34:20;7.40;82.10
14585;DHT22;7379;51.506;11.876;2024-03-06T00:36:47;7.40;81.40
14585;DHT22;7379;51.506;11.876;2024-03-06T00:39:13;7.40;81.40
14585;DHT22;7379;51.506;11.876;2024-03-06T00:41:41;7.40;81.40
14585;DHT22;7379;51.506;11.876;2024-03-06T00:44:09;7.40;81.40
14585;DHT22;7379;51.506;11.876;2024-03-06T00:46:35;7.30;81.30
14585;DHT22;7379;51.506;11.876;2024-03-06T00:49:02;7.30;81.30
14585;DHT22;7379;51.506;11.876;2024-03-06T00:51:29;7.40;81.40
14585;DHT22;7379;51.506;11.876;2024-03-06T00:53:56;7.40;81.50
14585;DHT22;7379;51.506;11.876;2024-03-06T00:56:23;7.30;81.40
14585;DHT22;7379;51.506;11.876;2024-03-06T00:58:49;7.30;81.40
14585;DHT22;7379;51.506;11.876;2024-03-06T01:01:17;7.30;81.40
14585;DHT22;7379;51.506;11.876;2024-03-06T01:03:44;7.30;81.40
14585;DHT22;7379;51.506;11.876;2024-03-06T01:06:11;7.30;81.40
14585;DHT22;7379;51.506;11.876;2024-03-06T01:08:38;7.30;81.40
14585;DHT22;7379;51.506;11.876;2024-03-06T01:11:04;7.30;81.40
14585;DHT22;7379;51.506;11.876;2024-03-06T01:13:32;7.30;81.40
14585;DHT22;7379;51.506;11.876;2024-03-06T01:15:58;7.30;81.50
14585;DHT22;7379;51.506;11.876;2024-03-06T01:18:26;7.30;81.40
14585;DHT22;7379;51.506;11.876;2024-03-06T01:20:53;7.30;81.40
14585;DHT22;7379;51.506;11.876;2024-03-06T01:23:20;7.30;81.40
14585;DHT22;7379;51.506;11.876;2024-03-06T01:25:47;7.20;81.20
14585;DHT22;7379;51.506;11.876;2024-03-06T01:28:14;7.20;81.20
14585;DHT22;7379;51.506;11.876;2024-03-06T01:30:40;7.20;81.30
14585;DHT22;7379;51.506;11.876;2024-03-06T01:33:07;7.20;81.20
14585;DHT22;7379;51.506;11.876;2024-03-06T01:35:36;7.20;81.20
14585;DHT22;7379;51.506;11.876;2024-03-06T01:38:03;7.20;81.20
14585;DHT22;7379;51.506;11.876;2024-03-06T01:40:31;7.20;81.20
14585;DHT22;7379;51.506;11.876;2024-03-06T01:42:57;7.20;81.20
14585;DHT22;7379;51.506;11.876;2024-03-06T01:45:24;7.20;81.20
14585;DHT22;7379;51.506;11.876;2024-03-06T01:47:51;7.20;81.20
14585;DHT22;7379;51.506;11.876;2024-03-06T01:50:18;7.20;81.20
14585;DHT22;7379;51.506;11.876;2024-03-06T01:52:47;7.20;81.20
14585;DHT22;7379;51.506;11.876;2024-03-06T01:55:14;7.20;81.20
14585;DHT22;7379;51.506;11.876;2024-03-06T01:57:41;7.10;81.10
14585;DHT22;7379;51.506;11.876;2024-03-06T02:00:09;7.10;81.10
14585;DHT22;7379;51.506;11.876;2024-03-06T02:02:40;7.10;81.10
14585;DHT22;7379;51.506;11.876;2024-03-06T02:05:08;7.10;81.10
14585;DHT22;7379;51.506;11.876;2024-03-06T02:07:36;7.10;81.10
14585;DHT22;7379;51.506;11.876;2024-03-06T02:10:05;7.10;81.00
14585;DHT22;7379;51.506;11.876;2024-03-06T02:12:32;7.10;81.10
14585;DHT22;7379;51.506;11.876;2024-03-06T02:15:00;7.10;81.10
14585;DHT22;7379;51.506;11.876;2024-03-06T02:17:28;7.10;81.10
14585;DHT22;7379;51.506;11.876;2024-03-06T02:19:56;7.10;81.10
14585;DHT22;7379;51.506;11.876;2024-03-06T02:22:25;7.10;81.10
14585;DHT22;7379;51.506;11.876;2024-03-06T02:24:52;7.10;81.10
14585;DHT22;7379;51.506;11.876;2024-03-06T02:27:18;7.00;81.00
14585;DHT22;7379;51.506;11.876;2024-03-06T02:29:45;7.00;81.00
14585;DHT22;7379;51.506;11.876;2024-03-06T02:32:12;7.00;81.00
14585;DHT22;7379;51.506;11.876;2024-03-06T02:34:39;7.00;81.70
14585;DHT22;7379;51.506;11.876;2024-03-06T02:37:06;7.00;81.00
14585;DHT22;7379;51.506;11.876;2024-03-06T02:39:34;7.00;81.00
14585;DHT22;7379;51.506;11.876;2024-03-06T02:42:01;7.00;81.00
14585;DHT22;7379;51.506;11.876;2024-03-06T02:44:28;7.00;81.00
14585;DHT22;7379;51.506;11.876;2024-03-06T02:46:55;7.00;81.00
14585;DHT22;7379;51.506;11.876;2024-03-06T02:49:21;7.00;81.00
14585;DHT22;7379;51.506;11.876;2024-03-06T02:51:48;7.00;80.90
14585;DHT22;7379;51.506;11.876;2024-03-06T02:54:15;7.00;80.90
14585;DHT22;7379;51.506;11.876;2024-03-06T02:56:43;7.00;80.90
14585;DHT22;7379;51.506;11.876;2024-03-06T02:59:10;6.90;80.90
14585;DHT22;7379;51.506;11.876;2024-03-06T03:01:36;7.00;80.90
14585;DHT22;7379;51.506;11.876;2024-03-06T03:04:04;7.00;81.00
14585;DHT22;7379;51.506;11.876;2024-03-06T03:06:32;6.90;80.90
14585;DHT22;7379;51.506;11.876;2024-03-06T03:08:58;6.90;80.90
14585;DHT22;7379;51.506;11.876;2024-03-06T03:11:25;6.90;80.90
14585;DHT22;7379;51.506;11.876;2024-03-06T03:13:53;6.90;80.80
14585;DHT22;7379;51.506;11.876;2024-03-06T03:16:20;6.90;80.80
14585;DHT22;7379;51.506;11.876;2024-03-06T03:18:47;6.90;80.80
14585;DHT22;7379;51.506;11.876;2024-03-06T03:21:14;6.90;80.80
14585;DHT22;7379;51.506;11.876;2024-03-06T03:23:41;6.90;80.80
14585;DHT22;7379;51.506;11.876;2024-03-06T03:26:08;6.90;80.90
14585;DHT22;7379;51.506;11.876;2024-03-06T03:28:37;6.90;80.80
14585;DHT22;7379;51.506;11.876;2024-03-06T03:31:06;6.90;80.80
14585;DHT22;7379;51.506;11.876;2024-03-06T03:33:34;6.90;80.90
14585;DHT22;7379;51.506;11.876;2024-03-06T03:36:02;6.80;80.80
14585;DHT22;7379;51.506;11.876;2024-03-06T03:38:28;6.80;80.80
14585;DHT22;7379;51.506;11.876;2024-03-06T03:40:55;6.80;80.80
14585;DHT22;7379;51.506;11.876;2024-03-06T03:43:22;6.80;80.80
14585;DHT22;7379;51.506;11.876;2024-03-06T03:45:48;6.80;80.70
14585;DHT22;7379;51.506;11.876;2024-03-06T03:48:16;6.80;80.80
14585;DHT22;7379;51.506;11.876;2024-03-06T03:50:43;6.80;80.70
14585;DHT22;7379;51.506;11.876;2024-03-06T03:53:10;6.80;80.70
14585;DHT22;7379;51.506;11.876;2024-03-06T03:55:36;6.80;80.70
14585;DHT22;7379;51.506;11.876;2024-03-06T03:58:03;6.80;80.70
14585;DHT22;7379;51.506;11.876;2024-03-06T04:00:32;6.80;80.70
14585;DHT22;7379;51.506;11.876;2024-03-06T04:02:59;6.80;80.70
14585;DHT22;7379;51.506;11.876;2024-03-06T04:05:27;6.80;80.70
14585;DHT22;7379;51.506;11.876;2024-03-06T04:07:53;6.70;80.60
14585;DHT22;7379;51.506;11.876;2024-03-06T04:10:21;6.70;80.60
14585;DHT22;7379;51.506;11.876;2024-03-06T04:12:47;6.70;80.60
14585;DHT22;7379;51.506;11.876;2024-03-06T04:15:14;6.70;80.50
14585;DHT22;7379;51.506;11.876;2024-03-06T04:17:41;6.70;80.50
14585;DHT22;7379;51.506;11.876;2024-03-06T04:20:09;6.70;80.60
14585;DHT22;7379;51.506;11.876;2024-03-06T04:22:38;6.70;80.50
14585;DHT22;7379;51.506;11.876;2024-03-06T04:25:06;6.70;80.50
14585;DHT22;7379;51.506;11.876;2024-03-06T04:27:32;6.70;80.50
14585;DHT22;7379;51.506;11.876;2024-03-06T04:29:59;6.70;80.50
14585;DHT22;7379;51.506;11.876;2024-03-06T04:32:26;6.70;80.50
14585;DHT22;7379;51.506;11.876;2024-03-06T04:34:52;6.70;80.50
14585;DHT22;7379;51.506;11.876;2024-03-06T04:37:21;6.60;80.40
14585;DHT22;7379;51.506;11.876;2024-03-06T04:39:49;6.60;80.40
14585;DHT22;7379;51.506;11.876;2024-03-06T04:42:16;6.60;80.40
14585;DHT22;7379;51.506;11.876;2024-03-06T04:44:42;6.60;80.40
14585;DHT22;7379;51.506;11.876;2024-03-06T04:47:09;6.60;80.40
14585;DHT22;7379;51.506;11.876;2024-03-06T04:49:36;6.60;80.40
14585;DHT22;7379;51.506;11.876;2024-03-06T04:52:03;6.60;80.40
14585;DHT22;7379;51.506;11.876;2024-03-06T04:54:30;6.60;80.40
14585;DHT22;7379;51.506;11.876;2024-03-06T04:56:58;6.60;80.40
14585;DHT22;7379;51.506;11.876;2024-03-06T04:59:25;6.60;80.30
14585;DHT22;7379;51.506;11.876;2024-03-06T05:01:52;6.60;80.30
14585;DHT22;7379;51.506;11.876;2024-03-06T05:04:18;6.60;80.30
14585;DHT22;7379;51.506;11.876;2024-03-06T05:06:45;6.60;80.30
14585;DHT22;7379;51.506;11.876;2024-03-06T05:09:12;6.50;80.20
14585;DHT22;7379;51.506;11.876;2024-03-06T05:11:40;6.50;80.20
14585;DHT22;7379;51.506;11.876;2024-03-06T05:14:08;6.50;80.10
14585;DHT22;7379;51.506;11.876;2024-03-06T05:16:35;6.50;80.20
14585;DHT22;7379;51.506;11.876;2024-03-06T05:19:01;6.50;80.10
14585;DHT22;7379;51.506;11.876;2024-03-06T05:21:28;6.50;80.20
14585;DHT22;7379;51.506;11.876;2024-03-06T05:23:55;6.50;80.10
14585;DHT22;7379;51.506;11.876;2024-03-06T05:26:22;6.50;80.10
14585;DHT22;7379;51.506;11.876;2024-03-06T05:28:49;6.50;80.10
14585;DHT22;7379;51.506;11.876;2024-03-06T05:31:18;6.50;80.10
14585;DHT22;7379;51.506;11.876;2024-03-06T05:33:47;6.40;80.00
14585;DHT22;7379;51.506;11.876;2024-03-06T05:36:14;6.40;80.00
14585;DHT22;7379;51.506;11.876;2024-03-06T05:38:40;6.40;80.00
14585;DHT22;7379;51.506;11.876;2024-03-06T05:41:08;6.40;80.00
14585;DHT22;7379;51.506;11.876;2024-03-06T05:43:35;6.40;80.00
14585;DHT22;7379;51.506;11.876;2024-03-06T05:46:02;6.40;80.00
14585;DHT22;7379;51.506;11.876;2024-03-06T05:48:31;6.40;80.00
14585;DHT22;7379;51.506;11.876;2024-03-06T05:50:58;6.40;80.00
14585;DHT22;7379;51.506;11.876;2024-03-06T05:53:25;6.40;80.00
14585;DHT22;7379;51.506;11.876;2024-03-06T05:55:52;6.40;79.90
14585;DHT22;7379;51.506;11.876;2024-03-06T05:58:20;6.40;79.90
14585;DHT22;7379;51.506;11.876;2024-03-06T06:00:47;6.30;79.80
14585;DHT22;7379;51.506;11.876;2024-03-06T06:03:14;6.30;79.80
14585;DHT22;7379;51.506;11.876;2024-03-06T06:05:42;6.30;79.80
14585;DHT22;7379;51.506;11.876;2024-03-06T06:08:09;6.30;79.80
14585;DHT22;7379;51.506;11.876;2024-03-06T06:10:35;6.30;79.70
14585;DHT22;7379;51.506;11.876;2024-03-06T06:13:02;6.30;79.80
14585;DHT22;7379;51.506;11.876;2024-03-06T06:15:30;6.30;79.70
14585;DHT22;7379;51.506;11.876;2024-03-06T06:17:57;6.30;79.80
14585;DHT22;7379;51.506;11.876;2024-03-06T06:20:24;6.30;79.80
14585;DHT22;7379;51.506;11.876;2024-03-06T06:22:52;6.30;79.80
14585;DHT22;7379;51.506;11.876;2024-03-06T06:25:18;6.30;79.80
14585;DHT22;7379;51.506;11.876;2024-03-06T06:27:45;6.30;79.80
14585;DHT22;7379;51.506;11.876;2024-03-06T06:30:14;6.30;79.80
14585;DHT22;7379;51.506;11.876;2024-03-06T06:32:41;6.20;79.70
14585;DHT22;7379;51.506;11.876;2024-03-06T06:35:09;6.20;79.70
14585;DHT22;7379;51.506;11.876;2024-03-06T06:37:37;6.20;79.70
14585;DHT22;7379;51.506;11.876;2024-03-06T06:40:06;6.20;79.70
14585;DHT22;7379;51.506;11.876;2024-03-06T06:42:34;6.20;79.70
14585;DHT22;7379;51.506;11.876;2024-03-06T06:45:01;6.20;79.70
14585;DHT22;7379;51.506;11.876;2024-03-06T06:47:28;6.20;79.70
14585;DHT22;7379;51.506;11.876;2024-03-06T06:49:55;6.20;79.70
14585;DHT22;7379;51.506;11.876;2024-03-06T06:52:22;6.20;79.70
14585;DHT22;7379;51.506;11.876;2024-03-06T06:54:49;6.20;79.70
14585;DHT22;7379;51.506;11.876;2024-03-06T06:57:18;6.20;79.70
14585;DHT22;7379;51.506;11.876;2024-03-06T06:59:45;6.20;79.70
14585;DHT22;7379;51.506;11.876;2024-03-06T07:02:12;6.20;79.70
14585;DHT22;7379;51.506;11.876;2024-03-06T07:04:38;6.20;79.80
14585;DHT22;7379;51.506;11.876;2024-03-06T07:07:05;6.20;79.80
14585;DHT22;7379;51.506;11.876;2024-03-06T07:09:32;6.20;79.80
14585;DHT22;7379;51.506;11.876;2024-03-06T07:11:59;6.10;79.70
14585;DHT22;7379;51.506;11.876;2024-03-06T07:14:27;6.20;79.80
14585;DHT22;7379;51.506;11.876;2024-03-06T07:16:54;6.20;79.80
14585;DHT22;7379;51.506;11.876;2024-03-06T07:19:20;6.20;79.80
14585;DHT22;7379;51.506;11.876;2024-03-06T07:21:47;6.10;79.70
14585;DHT22;7379;51.506;11.876;2024-03-06T07:24:14;6.10;79.70
14585;DHT22;7379;51.506;11.876;2024-03-06T07:26:41;6.10;79.70
14585;DHT22;7379;51.506;11.876;2024-03-06T07:29:07;6.10;79.70
14585;DHT22;7379;51.506;11.876;2024-03-06T07:31:41;6.10;79.70
14585;DHT22;7379;51.506;11.876;2024-03-06T07:34:08;6.10;79.70
14585;DHT22;7379;51.506;11.876;2024-03-06T07:36:35;6.10;79.70
14585;DHT22;7379;51.506;11.876;2024-03-06T07:39:03;6.10;79.70
14585;DHT22;7379;51.506;11.876;2024-03-06T07:41:30;6.10;79.60
14585;DHT22;7379;51.506;11.876;2024-03-06T07:43:58;6.20;79.70
14585;DHT22;7379;51.506;11.876;2024-03-06T07:46:25;6.20;79.60
14585;DHT22;7379;51.506;11.876;2024-03-06T07:48:53;6.20;79.50
14585;DHT22;7379;51.506;11.876;2024-03-06T07:51:20;6.20;79.40
14585;DHT22;7379;51.506;11.876;2024-03-06T07:53:47;6.20;79.40
14585;DHT22;7379;51.506;11.876;2024-03-06T07:56:15;6.20;79.30
14585;DHT22;7379;51.506;11.876;2024-03-06T07:58:42;6.20;79.20
14585;DHT22;7379;51.506;11.876;2024-03-06T08:01:09;6.20;79.20
14585;DHT22;7379;51.506;11.876;2024-03-06T08:03:38;6.20;79.20
14585;DHT22;7379;51.506;11.876;2024-03-06T08:06:07;6.30;79.20
14585;DHT22;7379;51.506;11.876;2024-03-06T08:08:34;6.30;79.10
14585;DHT22;7379;51.506;11.876;2024-03-06T08:11:01;6.30;79.00
14585;DHT22;7379;51.506;11.876;2024-03-06T08:13:28;6.30;79.00
14585;DHT22;7379;51.506;11.876;2024-03-06T08:15:54;6.30;78.90
14585;DHT22;7379;51.506;11.876;2024-03-06T08:18:21;6.30;78.90
14585;DHT22;7379;51.506;11.876;2024-03-06T08:20:48;6.30;78.90
14585;DHT22;7379;51.506;11.876;2024-03-06T08:23:16;6.30;78.90
14585;DHT22;7379;51.506;11.876;2024-03-06T08:25:42;6.40;79.00
14585;DHT22;7379;51.506;11.876;2024-03-06T08:28:09;6.40;79.10
14585;DHT22;7379;51.506;11.876;2024-03-06T08:30:36;6.40;79.00
14585;DHT22;7379;51.506;11.876;2024-03-06T08:33:03;6.40;79.00
14585;DHT22;7379;51.506;11.876;2024-03-06T08:35:30;6.40;79.00
14585;DHT22;7379;51.506;11.876;2024-03-06T08:37:57;6.40;79.10
14585;DHT22;7379;51.506;11.876;2024-03-06T08:40:25;6.40;79.10
14585;DHT22;7379;51.506;11.876;2024-03-06T08:42:53;6.40;79.20
14585;DHT22;7379;51.506;11.876;2024-03-06T08:45:20;6.40;79.20
14585;DHT22;7379;51.506;11.876;2024-03-06T08:47:48;6.40;79.20
14585;DHT22;7379;51.506;11.876;2024-03-06T08:50:15;6.40;79.30
14585;DHT22;7379;51.506;11.876;2024-03-06T08:52:42;6.40;79.40
14585;DHT22;7379;51.506;11.876;2024-03-06T08:55:09;6.40;79.40
14585;DHT22;7379;51.506;11.876;2024-03-06T08:57:38;6.40;79.40
14585;DHT22;7379;51.506;11.876;2024-03-06T09:00:06;6.40;79.50
14585;DHT22;7379;51.506;11.876;2024-03-06T09:02:36;6.40;79.50
14585;DHT22;7379;51.506;11.876;2024-03-06T09:05:04;6.40;79.60
14585;DHT22;7379;51.506;11.876;2024-03-06T09:07:31;6.40;79.70
14585;DHT22;7379;51.506;11.876;2024-03-06T09:10:03;6.40;79.70
14585;DHT22;7379;51.506;11.876;2024-03-06T09:12:31;6.40;79.80
14585;DHT22;7379;51.506;11.876;2024-03-06T09:14:59;6.40;79.80
14585;DHT22;7379;51.506;11.876;2024-03-06T09:17:26;6.40;79.80
14585;DHT22;7379;51.506;11.876;2024-03-06T09:19:53;6.40;79.90
14585;DHT22;7379;51.506;11.876;2024-03-06T09:22:19;6.40;79.90
14585;DHT22;7379;51.506;11.876;2024-03-06T09:24:46;6.40;80.00
14585;DHT22;7379;51.506;11.876;2024-03-06T09:27:13;6.40;80.00
14585;DHT22;7379;51.506;11.876;2024-03-06T09:29:40;6.40;80.00
14585;DHT22;7379;51.506;11.876;2024-03-06T09:32:09;6.40;80.00
14585;DHT22;7379;51.506;11.876;2024-03-06T09:34:38;6.30;80.00
14585;DHT22;7379;51.506;11.876;2024-03-06T09:37:05;6.40;80.10
14585;DHT22;7379;51.506;11.876;2024-03-06T09:39:32;6.40;80.10
14585;DHT22;7379;51.506;11.876;2024-03-06T09:41:59;6.40;80.10
14585;DHT22;7379;51.506;11.876;2024-03-06T09:44:27;6.40;80.10
14585;DHT22;7379;51.506;11.876;2024-03-06T09:46:54;6.40;80.20
14585;DHT22;7379;51.506;11.876;2024-03-06T09:49:24;6.40;80.20
14585;DHT22;7379;51.506;11.876;2024-03-06T09:51:51;6.40;80.20
14585;DHT22;7379;51.506;11.876;2024-03-06T09:54:21;6.40;80.20
14585;DHT22;7379;51.506;11.876;2024-03-06T09:56:51;6.40;80.20
14585;DHT22;7379;51.506;11.876;2024-03-06T09:59:20;6.40;80.20
14585;DHT22;7379;51.506;11.876;2024-03-06T10:01:50;6.40;80.30
14585;DHT22;7379;51.506;11.876;2024-03-06T10:04:20;6.40;80.30
14585;DHT22;7379;51.506;11.876;2024-03-06T10:06:49;6.40;80.30
14585;DHT22;7379;51.506;11.876;2024-03-06T10:09:18;6.40;80.30
14585;DHT22;7379;51.506;11.876;2024-03-06T10:11:45;6.40;80.30
14585;DHT22;7379;51.506;11.876;2024-03-06T10:14:12;6.40;80.30
14585;DHT22;7379;51.506;11.876;2024-03-06T10:16:52;6.40;81.00
14585;DHT22;7379;51.506;11.876;2024-03-06T10:19:19;6.40;80.30
14585;DHT22;7379;51.506;11.876;2024-03-06T10:21:47;6.40;80.30
14585;DHT22;7379;51.506;11.876;2024-03-06T10:24:18;6.40;80.30
14585;DHT22;7379;51.506;11.876;2024-03-06T10:26:46;6.40;80.30
14585;DHT22;7379;51.506;11.876;2024-03-06T10:29:15;6.40;80.30
14585;DHT22;7379;51.506;11.876;2024-03-06T10:31:47;6.50;80.40
14585;DHT22;7379;51.506;11.876;2024-03-06T10:34:14;6.50;80.40
14585;DHT22;7379;51.506;11.876;2024-03-06T10:36:42;6.50;80.30
14585;DHT22;7379;51.506;11.876;2024-03-06T10:39:11;6.50;80.30
14585;DHT22;7379;51.506;11.876;2024-03-06T10:41:40;6.50;80.40
14585;DHT22;7379;51.506;11.876;2024-03-06T10:44:11;6.50;80.30
14585;DHT22;7379;51.506;11.876;2024-03-06T10:46:41;6.50;80.30
14585;DHT22;7379;51.506;11.876;2024-03-06T10:49:10;6.50;80.30
14585;DHT22;7379;51.506;11.876;2024-03-06T10:51:40;6.50;80.30
14585;DHT22;7379;51.506;11.876;2024-03-06T10:54:09;6.60;80.40
14585;DHT22;7379;51.506;11.876;2024-03-06T10:56:40;6.60;80.30
14585;DHT22;7379;51.506;11.876;2024-03-06T10:59:10;6.60;80.30
14585;DHT22;7379;51.506;11.876;2024-03-06T11:01:39;6.60;80.20
14585;DHT22;7379;51.506;11.876;2024-03-06T11:04:09;6.70;80.10
14585;DHT22;7379;51.506;11.876;2024-03-06T11:06:37;6.70;80.00
14585;DHT22;7379;51.506;11.876;2024-03-06T11:09:04;6.70;79.90
14585;DHT22;7379;51.506;11.876;2024-03-06T11:11:49;6.70;79.60
14585;DHT22;7379;51.506;11.876;2024-03-06T11:14:16;6.70;79.40
14585;DHT22;7379;51.506;11.876;2024-03-06T11:17:00;6.80;79.30
14585;DHT22;7379;51.506;11.876;2024-03-06T11:19:28;6.80;78.90
14585;DHT22;7379;51.506;11.876;2024-03-06T11:21:55;6.80;79.10
14585;DHT22;7379;51.506;11.876;2024-03-06T11:24:23;6.80;80.00
14585;DHT22;7379;51.506;11.876;2024-03-06T11:27:01;6.80;79.20
14585;DHT22;7379;51.506;11.876;2024-03-06T11:30:03;6.80;79.20
14585;DHT22;7379;51.506;11.876;2024-03-06T11:32:31;6.80;78.90
14585;DHT22;7379;51.506;11.876;2024-03-06T11:34:58;6.80;78.90
14585;DHT22;7379;51.506;11.876;2024-03-06T11:37:25;6.90;79.00
14585;DHT22;7379;51.506;11.876;2024-03-06T11:39:59;6.90;78.90
14585;DHT22;7379;51.506;11.876;2024-03-06T11:42:34;6.90;78.70
14585;DHT22;7379;51.506;11.876;2024-03-06T11:45:12;7.00;78.60
14585;DHT22;7379;51.506;11.876;2024-03-06T11:47:56;7.00;79.20
14585;DHT22;7379;51.506;11.876;2024-03-06T11:50:23;7.00;78.20
14585;DHT22;7379;51.506;11.876;2024-03-06T11:52:51;7.00;77.80
14585;DHT22;7379;51.506;11.876;2024-03-06T11:55:20;7.00;78.10
14585;DHT22;7379;51.506;11.876;2024-03-06T11:57:48;7.00;78.20
14585;DHT22;7379;51.506;11.876;2024-03-06T12:00:15;7.00;78.40
14585;DHT22;7379;51.506;11.876;2024-03-06T12:02:43;7.00;78.30
14585;DHT22;7379;51.506;11.876;2024-03-06T12:05:09;7.00;78.20
14585;DHT22;7379;51.506;11.876;2024-03-06T12:07:45;7.10;78.20
14585;DHT22;7379;51.506;11.876;2024-03-06T12:10:12;7.10;78.20
14585;DHT22;7379;51.506;11.876;2024-03-06T12:12:40;7.10;78.30
14585;DHT22;7379;51.506;11.876;2024-03-06T12:15:11;7.10;78.20
14585;DHT22;7379;51.506;11.876;2024-03-06T12:17:42;7.10;78.20
14585;DHT22;7379;51.506;11.876;2024-03-06T12:20:11;7.20;77.80
14585;DHT22;7379;51.506;11.876;2024-03-06T12:22:44;7.20;77.70
14585;DHT22;7379;51.506;11.876;2024-03-06T12:25:18;7.20;77.80
14585;DHT22;7379;51.506;11.876;2024-03-06T12:27:45;7.20;77.60
14585;DHT22;7379;51.506;11.876;2024-03-06T12:30:16;7.20;77.40
14585;DHT22;7379;51.506;11.876;2024-03-06T12:32:43;7.30;77.60
14585;DHT22;7379;51.506;11.876;2024-03-06T12:35:10;7.30;77.60
14585;DHT22;7379;51.506;11.876;2024-03-06T12:37:36;7.40;77.30
14585;DHT22;7379;51.506;11.876;2024-03-06T12:40:04;7.30;77.10
14585;DHT22;7379;51.506;11.876;2024-03-06T12:42:31;7.40;77.00
14585;DHT22;7379;51.506;11.876;2024-03-06T12:44:57;7.40;77.00
14585;DHT22;7379;51.506;11.876;2024-03-06T12:47:25;7.40;77.00
14585;DHT22;7379;51.506;11.876;2024-03-06T12:49:52;7.40;76.90
14585;DHT22;7379;51.506;11.876;2024-03-06T12:52:19;7.40;76.60
14585;DHT22;7379;51.506;11.876;2024-03-06T12:54:45;7.50;75.40
14585;DHT22;7379;51.506;11.876;2024-03-06T12:57:12;7.50;75.80
14585;DHT22;7379;51.506;11.876;2024-03-06T12:59:39;7.50;75.90
14585;DHT22;7379;51.506;11.876;2024-03-06T13:02:06;7.50;75.30
14585;DHT22;7379;51.506;11.876;2024-03-06T13:04:34;7.60;75.70
14585;DHT22;7379;51.506;11.876;2024-03-06T13:07:01;7.50;75.70
14585;DHT22;7379;51.506;11.876;2024-03-06T13:09:28;7.60;75.70
14585;DHT22;7379;51.506;11.876;2024-03-06T13:11:55;7.50;75.60
14585;DHT22;7379;51.506;11.876;2024-03-06T13:14:21;7.60;75.60
14585;DHT22;7379;51.506;11.876;2024-03-06T13:16:48;7.60;75.20
14585;DHT22;7379;51.506;11.876;2024-03-06T13:19:15;7.60;75.10
14585;DHT22;7379;51.506;11.876;2024-03-06T13:21:43;7.70;75.20
14585;DHT22;7379;51.506;11.876;2024-03-06T13:24:09;7.80;74.10
14585;DHT22;7379;51.506;11.876;2024-03-06T13:26:36;7.90;74.00
14585;DHT22;7379;51.506;11.876;2024-03-06T13:29:05;7.90;73.30
14585;DHT22;7379;51.506;11.876;2024-03-06T13:31:32;7.90;73.60
14585;DHT22;7379;51.506;11.876;2024-03-06T13:34:00;7.90;73.90
14585;DHT22;7379;51.506;11.876;2024-03-06T13:36:26;7.90;73.80
14585;DHT22;7379;51.506;11.876;2024-03-06T13:38:55;7.90;73.90
14585;DHT22;7379;51.506;11.876;2024-03-06T13:41:22;7.90;74.00
14585;DHT22;7379;51.506;11.876;2024-03-06T13:43:49;7.90;74.00
14585;DHT22;7379;51.506;11.876;2024-03-06T13:46:16;7.90;74.00
14585;DHT22;7379;51.506;11.876;2024-03-06T13:48:42;8.00;73.40
14585;DHT22;7379;51.506;11.876;2024-03-06T13:51:09;8.00;73.80
14585;DHT22;7379;51.506;11.876;2024-03-06T13:53:36;8.00;74.00
14585;DHT22;7379;51.506;11.876;2024-03-06T13:56:04;8.10;73.40
14585;DHT22;7379;51.506;11.876;2024-03-06T13:58:31;8.10;73.50
14585;DHT22;7379;51.506;11.876;2024-03-06T14:00:58;8.00;73.30
14585;DHT22;7379;51.506;11.876;2024-03-06T14:03:25;8.00;73.80
14585;DHT22;7379;51.506;11.876;2024-03-06T14:05:51;8.00;72.80
14585;DHT22;7379;51.506;11.876;2024-03-06T14:08:18;8.00;73.10
14585;DHT22;7379;51.506;11.876;2024-03-06T14:10:45;8.10;72.20
14585;DHT22;7379;51.506;11.876;2024-03-06T14:13:14;8.10;72.80
14585;DHT22;7379;51.506;11.876;2024-03-06T14:15:41;8.20;72.70
14585;DHT22;7379;51.506;11.876;2024-03-06T14:18:08;8.10;72.70
14585;DHT22;7379;51.506;11.876;2024-03-06T14:20:35;8.10;73.10
14585;DHT22;7379;51.506;11.876;2024-03-06T14:23:04;8.10;72.90
14585;DHT22;7379;51.506;11.876;2024-03-06T14:25:31;8.20;72.70
14585;DHT22;7379;51.506;11.876;2024-03-06T14:28:00;8.20;72.50
14585;DHT22;7379;51.506;11.876;2024-03-06T14:30:28;8.30;72.30
14585;DHT22;7379;51.506;11.876;2024-03-06T14:32:55;8.40;72.20
14585;DHT22;7379;51.506;11.876;2024-03-06T14:35:21;8.40;72.40
14585;DHT22;7379;51.506;11.876;2024-03-06T14:37:49;8.40;72.00
14585;DHT22;7379;51.506;11.876;2024-03-06T14:40:16;8.40;71.90
14585;DHT22;7379;51.506;11.876;2024-03-06T14:42:42;8.50;71.90
14585;DHT22;7379;51.506;11.876;2024-03-06T14:45:10;8.50;71.60
14585;DHT22;7379;51.506;11.876;2024-03-06T14:47:38;8.70;70.90
14585;DHT22;7379;51.506;11.876;2024-03-06T14:50:06;8.70;70.90
14585;DHT22;7379;51.506;11.876;2024-03-06T14:52:33;8.70;70.90
14585;DHT22;7379;51.506;11.876;2024-03-06T14:55:00;8.80;70.00
14585;DHT22;7379;51.506;11.876;2024-03-06T14:57:26;8.90;69.40
14585;DHT22;7379;51.506;11.876;2024-03-06T14:59:53;9.00;69.20
14585;DHT22;7379;51.506;11.876;2024-03-06T15:02:20;9.00;68.90
14585;DHT22;7379;51.506;11.876;2024-03-06T15:04:48;8.90;68.90
14585;DHT22;7379;51.506;11.876;2024-03-06T15:07:15;8.90;69.60
14585;DHT22;7379;51.506;11.876;2024-03-06T15:09:41;8.90;69.70
14585;DHT22;7379;51.506;11.876;2024-03-06T15:12:08;9.00;69.70
14585;DHT22;7379;51.506;11.876;2024-03-06T15:14:35;9.00;69.60
14585;DHT22;7379;51.506;11.876;2024-03-06T15:17:01;9.00;69.30
14585;DHT22;7379;51.506;11.876;2024-03-06T15:19:28;9.00;69.30
14585;DHT22;7379;51.506;11.876;2024-03-06T15:21:56;9.10;68.80
14585;DHT22;7379;51.506;11.876;2024-03-06T15:24:29;9.20;69.50
14585;DHT22;7379;51.506;11.876;2024-03-06T15:26:55;9.20;69.20
14585;DHT22;7379;51.506;11.876;2024-03-06T15:29:22;9.20;68.70
14585;DHT22;7379;51.506;11.876;2024-03-06T15:31:49;9.30;68.70
14585;DHT22;7379;51.506;11.876;2024-03-06T15:34:15;9.30;68.70
14585;DHT22;7379;51.506;11.876;2024-03-06T15:36:42;9.30;68.40
14585;DHT22;7379;51.506;11.876;2024-03-06T15:39:10;9.20;68.50
14585;DHT22;7379;51.506;11.876;2024-03-06T15:41:37;9.10;69.00
14585;DHT22;7379;51.506;11.876;2024-03-06T15:44:04;9.10;69.60
14585;DHT22;7379;51.506;11.876;2024-03-06T15:46:30;9.00;70.20